sensor_id;sensor_type;location;lat;lon;timestamp;P1;durP1;ratioP1;P2;durP2;ratioP2
70545;SDS011;58098;51.680;5.134;2022-10-01T00:01:09;10.88;;;7.95;;
70545;SDS011;58098;51.680;5.134;2022-10-01T00:03:35;11.75;;;8.13;;
70545;SDS011;58098;51.680;5.134;2022-10-01T00:06:10;10.40;;;7.30;;
70545;SDS011;58098;51.680;5.134;2022-10-01T00:08:37;9.60;;;7.53;;
70545;SDS011;58098;51.680;5.134;2022-10-01T00:11:07;8.40;;;6.93;;
70545;SDS011;58098;51.680;5.134;2022-10-01T00:13:32;11.60;;;7.70;;
70545;SDS011;58098;51.680;5.134;2022-10-01T00:15:58;8.65;;;6.80;;
70545;SDS011;58098;51.680;5.134;2022-10-01T00:18:24;12.77;;;7.67;;
70545;SDS011;58098;51.680;5.134;2022-10-01T00:20:49;9.60;;;6.80;;
70545;SDS011;58098;51.680;5.134;2022-10-01T00:23:14;11.87;;;7.30;;
70545;SDS011;58098;51.680;5.134;2022-10-01T00:25:40;9.90;;;7.13;;
70545;SDS011;58098;51.680;5.134;2022-10-01T00:28:05;11.35;;;7.25;;
70545;SDS011;58098;51.680;5.134;2022-10-01T00:30:30;13.63;;;7.87;;
70545;SDS011;58098;51.680;5.134;2022-10-01T00:32:56;9.73;;;7.57;;
70545;SDS011;58098;51.680;5.134;2022-10-01T00:35:21;10.33;;;7.77;;
70545;SDS011;58098;51.680;5.134;2022-10-01T00:37:49;9.97;;;8.13;;
70545;SDS011;58098;51.680;5.134;2022-10-01T00:40:16;12.38;;;8.65;;
70545;SDS011;58098;51.680;5.134;2022-10-01T00:42:41;11.60;;;8.43;;
70545;SDS011;58098;51.680;5.134;2022-10-01T00:45:08;11.60;;;7.88;;
70545;SDS011;58098;51.680;5.134;2022-10-01T00:47:35;15.95;;;8.85;;
70545;SDS011;58098;51.680;5.134;2022-10-01T00:52:33;10.18;;;7.97;;
70545;SDS011;58098;51.680;5.134;2022-10-01T00:58:01;15.82;;;8.70;;
70545;SDS011;58098;51.680;5.134;2022-10-01T01:00:27;10.10;;;7.93;;
70545;SDS011;58098;51.680;5.134;2022-10-01T01:02:53;9.70;;;7.50;;
70545;SDS011;58098;51.680;5.134;2022-10-01T01:05:18;10.97;;;7.23;;
70545;SDS011;58098;51.680;5.134;2022-10-01T01:07:45;10.98;;;8.30;;
70545;SDS011;58098;51.680;5.134;2022-10-01T01:10:12;15.00;;;8.90;;
70545;SDS011;58098;51.680;5.134;2022-10-01T01:23:08;8.35;;;6.63;;
70545;SDS011;58098;51.680;5.134;2022-10-01T01:25:47;7.33;;;5.30;;
70545;SDS011;58098;51.680;5.134;2022-10-01T01:30:40;7.40;;;5.80;;
70545;SDS011;58098;51.680;5.134;2022-10-01T01:33:11;7.00;;;5.53;;
70545;SDS011;58098;51.680;5.134;2022-10-01T01:35:38;9.13;;;5.07;;
70545;SDS011;58098;51.680;5.134;2022-10-01T01:38:09;6.25;;;4.05;;
70545;SDS011;58098;51.680;5.134;2022-10-01T01:40:36;7.38;;;4.72;;
70545;SDS011;58098;51.680;5.134;2022-10-01T01:43:03;7.80;;;5.10;;
70545;SDS011;58098;51.680;5.134;2022-10-01T01:45:29;6.15;;;4.93;;
70545;SDS011;58098;51.680;5.134;2022-10-01T01:47:56;6.43;;;5.27;;
70545;SDS011;58098;51.680;5.134;2022-10-01T01:50:22;6.43;;;4.70;;
70545;SDS011;58098;51.680;5.134;2022-10-01T01:52:52;6.18;;;4.85;;
70545;SDS011;58098;51.680;5.134;2022-10-01T01:55:18;5.78;;;4.97;;
70545;SDS011;58098;51.680;5.134;2022-10-01T01:57:43;5.87;;;4.87;;
70545;SDS011;58098;51.680;5.134;2022-10-01T02:00:09;5.30;;;4.53;;
70545;SDS011;58098;51.680;5.134;2022-10-01T02:02:35;5.25;;;4.30;;
70545;SDS011;58098;51.680;5.134;2022-10-01T02:05:07;6.13;;;3.88;;
70545;SDS011;58098;51.680;5.134;2022-10-01T02:10:29;3.83;;;3.47;;
70545;SDS011;58098;51.680;5.134;2022-10-01T02:13:11;6.70;;;3.80;;
70545;SDS011;58098;51.680;5.134;2022-10-01T02:15:58;4.30;;;3.47;;
70545;SDS011;58098;51.680;5.134;2022-10-01T02:23:37;4.20;;;3.80;;
70545;SDS011;58098;51.680;5.134;2022-10-01T02:26:07;4.95;;;3.67;;
70545;SDS011;58098;51.680;5.134;2022-10-01T02:28:35;4.10;;;3.40;;
70545;SDS011;58098;51.680;5.134;2022-10-01T02:31:01;4.13;;;3.55;;
70545;SDS011;58098;51.680;5.134;2022-10-01T02:33:28;3.83;;;3.47;;
70545;SDS011;58098;51.680;5.134;2022-10-01T02:35:54;3.85;;;3.35;;
70545;SDS011;58098;51.680;5.134;2022-10-01T02:38:20;4.15;;;3.75;;
70545;SDS011;58098;51.680;5.134;2022-10-01T02:40:46;4.13;;;3.00;;
70545;SDS011;58098;51.680;5.134;2022-10-01T02:43:24;5.03;;;3.10;;
70545;SDS011;58098;51.680;5.134;2022-10-01T02:45:53;4.05;;;3.20;;
70545;SDS011;58098;51.680;5.134;2022-10-01T02:48:20;4.15;;;3.35;;
70545;SDS011;58098;51.680;5.134;2022-10-01T02:50:47;5.40;;;3.47;;
70545;SDS011;58098;51.680;5.134;2022-10-01T02:55:57;3.53;;;3.22;;
70545;SDS011;58098;51.680;5.134;2022-10-01T02:58:23;6.13;;;3.33;;
70545;SDS011;58098;51.680;5.134;2022-10-01T03:00:48;3.67;;;3.37;;
70545;SDS011;58098;51.680;5.134;2022-10-01T03:03:13;4.67;;;3.50;;
70545;SDS011;58098;51.680;5.134;2022-10-01T03:05:39;4.40;;;4.00;;
70545;SDS011;58098;51.680;5.134;2022-10-01T03:08:04;4.37;;;3.63;;
70545;SDS011;58098;51.680;5.134;2022-10-01T03:10:29;5.10;;;4.10;;
70545;SDS011;58098;51.680;5.134;2022-10-01T03:12:54;3.83;;;3.50;;
70545;SDS011;58098;51.680;5.134;2022-10-01T03:15:20;4.68;;;3.72;;
70545;SDS011;58098;51.680;5.134;2022-10-01T03:17:49;3.73;;;3.43;;
70545;SDS011;58098;51.680;5.134;2022-10-01T03:20:14;4.25;;;3.65;;
70545;SDS011;58098;51.680;5.134;2022-10-01T03:22:40;4.13;;;3.73;;
70545;SDS011;58098;51.680;5.134;2022-10-01T03:25:08;3.92;;;3.63;;
70545;SDS011;58098;51.680;5.134;2022-10-01T03:27:33;4.93;;;4.50;;
70545;SDS011;58098;51.680;5.134;2022-10-01T03:29:58;4.47;;;3.80;;
70545;SDS011;58098;51.680;5.134;2022-10-01T03:32:23;3.83;;;3.53;;
70545;SDS011;58098;51.680;5.134;2022-10-01T03:34:48;4.53;;;3.97;;
70545;SDS011;58098;51.680;5.134;2022-10-01T03:37:14;4.20;;;3.90;;
70545;SDS011;58098;51.680;5.134;2022-10-01T03:39:39;3.80;;;3.40;;
70545;SDS011;58098;51.680;5.134;2022-10-01T03:42:04;5.27;;;3.80;;
70545;SDS011;58098;51.680;5.134;2022-10-01T03:44:30;6.50;;;3.30;;
70545;SDS011;58098;51.680;5.134;2022-10-01T03:46:55;3.38;;;3.08;;
70545;SDS011;58098;51.680;5.134;2022-10-01T03:49:20;3.90;;;3.00;;
70545;SDS011;58098;51.680;5.134;2022-10-01T03:51:45;3.50;;;3.17;;
70545;SDS011;58098;51.680;5.134;2022-10-01T03:54:11;3.33;;;3.03;;
70545;SDS011;58098;51.680;5.134;2022-10-01T03:56:36;3.60;;;3.30;;
70545;SDS011;58098;51.680;5.134;2022-10-01T03:59:04;3.35;;;3.08;;
70545;SDS011;58098;51.680;5.134;2022-10-01T04:01:29;3.60;;;2.90;;
70545;SDS011;58098;51.680;5.134;2022-10-01T04:03:54;3.33;;;3.03;;
70545;SDS011;58098;51.680;5.134;2022-10-01T04:06:20;3.40;;;3.10;;
70545;SDS011;58098;51.680;5.134;2022-10-01T04:08:45;3.10;;;2.90;;
70545;SDS011;58098;51.680;5.134;2022-10-01T04:11:10;3.93;;;3.43;;
70545;SDS011;58098;51.680;5.134;2022-10-01T04:13:36;4.07;;;3.23;;
70545;SDS011;58098;51.680;5.134;2022-10-01T04:16:01;3.37;;;3.10;;
70545;SDS011;58098;51.680;5.134;2022-10-01T04:18:26;4.03;;;3.10;;
70545;SDS011;58098;51.680;5.134;2022-10-01T04:20:52;3.43;;;3.10;;
70545;SDS011;58098;51.680;5.134;2022-10-01T04:23:17;4.43;;;3.20;;
70545;SDS011;58098;51.680;5.134;2022-10-01T04:25:42;4.87;;;3.60;;
70545;SDS011;58098;51.680;5.134;2022-10-01T04:28:09;5.20;;;3.40;;
70545;SDS011;58098;51.680;5.134;2022-10-01T04:30:36;3.80;;;3.50;;
70545;SDS011;58098;51.680;5.134;2022-10-01T04:33:01;5.57;;;3.63;;
70545;SDS011;58098;51.680;5.134;2022-10-01T04:35:27;3.77;;;3.47;;
70545;SDS011;58098;51.680;5.134;2022-10-01T04:37:56;3.95;;;3.65;;
70545;SDS011;58098;51.680;5.134;2022-10-01T04:40:22;7.03;;;4.35;;
70545;SDS011;58098;51.680;5.134;2022-10-01T04:42:47;4.70;;;4.30;;
70545;SDS011;58098;51.680;5.134;2022-10-01T04:45:12;4.90;;;4.00;;
70545;SDS011;58098;51.680;5.134;2022-10-01T04:47:37;5.50;;;5.00;;
70545;SDS011;58098;51.680;5.134;2022-10-01T04:50:03;4.77;;;4.27;;
70545;SDS011;58098;51.680;5.134;2022-10-01T04:52:28;5.37;;;4.87;;
70545;SDS011;58098;51.680;5.134;2022-10-01T04:54:53;5.00;;;3.90;;
70545;SDS011;58098;51.680;5.134;2022-10-01T04:57:18;6.67;;;4.67;;
70545;SDS011;58098;51.680;5.134;2022-10-01T04:59:47;5.35;;;4.85;;
70545;SDS011;58098;51.680;5.134;2022-10-01T05:02:12;7.20;;;5.77;;
70545;SDS011;58098;51.680;5.134;2022-10-01T05:04:37;6.47;;;5.77;;
70545;SDS011;58098;51.680;5.134;2022-10-01T05:07:03;6.90;;;6.20;;
70545;SDS011;58098;51.680;5.134;2022-10-01T05:09:28;6.80;;;6.17;;
70545;SDS011;58098;51.680;5.134;2022-10-01T05:11:53;8.73;;;7.07;;
70545;SDS011;58098;51.680;5.134;2022-10-01T05:14:18;9.47;;;7.70;;
70545;SDS011;58098;51.680;5.134;2022-10-01T05:16:45;9.85;;;8.10;;
70545;SDS011;58098;51.680;5.134;2022-10-01T05:19:10;9.10;;;7.73;;
70545;SDS011;58098;51.680;5.134;2022-10-01T05:21:36;12.30;;;9.40;;
70545;SDS011;58098;51.680;5.134;2022-10-01T05:24:01;10.90;;;8.53;;
70545;SDS011;58098;51.680;5.134;2022-10-01T05:26:26;12.67;;;10.47;;
70545;SDS011;58098;51.680;5.134;2022-10-01T05:28:51;15.25;;;11.30;;
70545;SDS011;58098;51.680;5.134;2022-10-01T05:31:18;12.25;;;11.00;;
70545;SDS011;58098;51.680;5.134;2022-10-01T05:33:43;12.47;;;11.17;;
70545;SDS011;58098;51.680;5.134;2022-10-01T05:36:08;15.27;;;12.10;;
70545;SDS011;58098;51.680;5.134;2022-10-01T05:38:33;16.67;;;13.07;;
70545;SDS011;58098;51.680;5.134;2022-10-01T05:41:04;19.65;;;13.63;;
70545;SDS011;58098;51.680;5.134;2022-10-01T05:43:29;14.73;;;12.33;;
70545;SDS011;58098;51.680;5.134;2022-10-01T05:45:58;16.75;;;13.05;;
70545;SDS011;58098;51.680;5.134;2022-10-01T05:48:23;16.80;;;14.40;;
70545;SDS011;58098;51.680;5.134;2022-10-01T05:50:48;19.17;;;15.07;;
70545;SDS011;58098;51.680;5.134;2022-10-01T05:53:14;18.85;;;15.25;;
70545;SDS011;58098;51.680;5.134;2022-10-01T05:55:39;19.27;;;15.67;;
70545;SDS011;58098;51.680;5.134;2022-10-01T05:58:09;20.60;;;16.13;;
70545;SDS011;58098;51.680;5.134;2022-10-01T06:00:34;20.13;;;16.63;;
70545;SDS011;58098;51.680;5.134;2022-10-01T06:03:00;19.17;;;15.53;;
70545;SDS011;58098;51.680;5.134;2022-10-01T06:05:26;21.80;;;16.00;;
70545;SDS011;58098;51.680;5.134;2022-10-01T06:07:51;23.58;;;16.55;;
70545;SDS011;58098;51.680;5.134;2022-10-01T06:10:17;25.73;;;17.47;;
70545;SDS011;58098;51.680;5.134;2022-10-01T06:12:43;24.27;;;16.57;;
70545;SDS011;58098;51.680;5.134;2022-10-01T06:15:08;32.00;;;17.47;;
70545;SDS011;58098;51.680;5.134;2022-10-01T06:17:34;21.55;;;16.70;;
70545;SDS011;58098;51.680;5.134;2022-10-01T06:19:59;25.70;;;16.87;;
70545;SDS011;58098;51.680;5.134;2022-10-01T06:22:24;23.43;;;17.40;;
70545;SDS011;58098;51.680;5.134;2022-10-01T06:24:50;24.73;;;18.37;;
70545;SDS011;58098;51.680;5.134;2022-10-01T06:27:15;24.03;;;17.80;;
70545;SDS011;58098;51.680;5.134;2022-10-01T06:29:41;25.83;;;17.45;;
70545;SDS011;58098;51.680;5.134;2022-10-01T06:32:06;24.63;;;17.07;;
70545;SDS011;58098;51.680;5.134;2022-10-01T06:34:32;20.75;;;16.38;;
70545;SDS011;58098;51.680;5.134;2022-10-01T06:36:58;24.30;;;16.20;;
70545;SDS011;58098;51.680;5.134;2022-10-01T06:39:23;26.27;;;17.33;;
70545;SDS011;58098;51.680;5.134;2022-10-01T06:41:48;26.00;;;16.70;;
70545;SDS011;58098;51.680;5.134;2022-10-01T06:44:13;23.13;;;15.80;;
70545;SDS011;58098;51.680;5.134;2022-10-01T06:46:39;22.70;;;16.53;;
70545;SDS011;58098;51.680;5.134;2022-10-01T06:49:04;25.03;;;16.33;;
70545;SDS011;58098;51.680;5.134;2022-10-01T06:51:29;24.33;;;16.00;;
70545;SDS011;58098;51.680;5.134;2022-10-01T06:54:13;21.13;;;16.00;;
70545;SDS011;58098;51.680;5.134;2022-10-01T06:56:38;26.03;;;16.30;;
70545;SDS011;58098;51.680;5.134;2022-10-01T06:59:03;24.67;;;16.40;;
70545;SDS011;58098;51.680;5.134;2022-10-01T07:01:29;24.43;;;17.60;;
70545;SDS011;58098;51.680;5.134;2022-10-01T07:03:56;31.63;;;17.65;;
70545;SDS011;58098;51.680;5.134;2022-10-01T07:06:23;28.90;;;15.90;;
70545;SDS011;58098;51.680;5.134;2022-10-01T07:08:48;26.83;;;16.57;;
70545;SDS011;58098;51.680;5.134;2022-10-01T07:11:14;22.50;;;16.67;;
70545;SDS011;58098;51.680;5.134;2022-10-01T07:13:40;25.93;;;14.93;;
70545;SDS011;58098;51.680;5.134;2022-10-01T07:16:05;25.03;;;16.27;;
70545;SDS011;58098;51.680;5.134;2022-10-01T07:18:30;19.47;;;13.70;;
70545;SDS011;58098;51.680;5.134;2022-10-01T07:20:55;21.60;;;14.03;;
70545;SDS011;58098;51.680;5.134;2022-10-01T07:23:21;20.73;;;13.88;;
70545;SDS011;58098;51.680;5.134;2022-10-01T07:25:48;23.73;;;13.93;;
70545;SDS011;58098;51.680;5.134;2022-10-01T07:28:14;22.70;;;13.80;;
70545;SDS011;58098;51.680;5.134;2022-10-01T07:30:42;22.10;;;14.07;;
70545;SDS011;58098;51.680;5.134;2022-10-01T07:33:08;22.58;;;13.35;;
70545;SDS011;58098;51.680;5.134;2022-10-01T07:35:34;20.90;;;11.63;;
70545;SDS011;58098;51.680;5.134;2022-10-01T07:38:02;20.90;;;11.25;;
70545;SDS011;58098;51.680;5.134;2022-10-01T07:40:27;17.52;;;10.52;;
70545;SDS011;58098;51.680;5.134;2022-10-01T07:42:53;15.67;;;8.33;;
70545;SDS011;58098;51.680;5.134;2022-10-01T07:45:19;16.73;;;7.07;;
70545;SDS011;58098;51.680;5.134;2022-10-01T07:47:50;17.67;;;6.32;;
70545;SDS011;58098;51.680;5.134;2022-10-01T07:50:15;12.17;;;6.80;;
70545;SDS011;58098;51.680;5.134;2022-10-01T07:52:40;13.50;;;6.70;;
70545;SDS011;58098;51.680;5.134;2022-10-01T07:55:06;12.67;;;6.07;;
70545;SDS011;58098;51.680;5.134;2022-10-01T07:57:34;13.85;;;6.38;;
70545;SDS011;58098;51.680;5.134;2022-10-01T08:00:00;10.03;;;5.87;;
70545;SDS011;58098;51.680;5.134;2022-10-01T08:02:25;11.93;;;5.10;;
70545;SDS011;58098;51.680;5.134;2022-10-01T08:04:50;12.97;;;5.90;;
70545;SDS011;58098;51.680;5.134;2022-10-01T08:07:34;10.38;;;5.25;;
70545;SDS011;58098;51.680;5.134;2022-10-01T08:10:00;7.93;;;4.43;;
70545;SDS011;58098;51.680;5.134;2022-10-01T08:12:28;10.77;;;4.72;;
70545;SDS011;58098;51.680;5.134;2022-10-01T08:14:54;6.67;;;4.20;;
70545;SDS011;58098;51.680;5.134;2022-10-01T08:17:19;11.32;;;4.65;;
70545;SDS011;58098;51.680;5.134;2022-10-01T08:19:45;11.47;;;4.77;;
70545;SDS011;58098;51.680;5.134;2022-10-01T08:22:10;9.97;;;4.93;;
70545;SDS011;58098;51.680;5.134;2022-10-01T08:24:36;9.53;;;4.80;;
70545;SDS011;58098;51.680;5.134;2022-10-01T08:27:01;11.47;;;4.90;;
70545;SDS011;58098;51.680;5.134;2022-10-01T08:29:26;8.17;;;4.80;;
70545;SDS011;58098;51.680;5.134;2022-10-01T08:31:52;9.00;;;5.07;;
70545;SDS011;58098;51.680;5.134;2022-10-01T08:34:17;10.40;;;5.63;;
70545;SDS011;58098;51.680;5.134;2022-10-01T08:36:42;10.87;;;5.80;;
70545;SDS011;58098;51.680;5.134;2022-10-01T08:39:07;12.43;;;6.30;;
70545;SDS011;58098;51.680;5.134;2022-10-01T08:41:44;11.60;;;7.00;;
70545;SDS011;58098;51.680;5.134;2022-10-01T08:44:24;22.25;;;7.78;;
70545;SDS011;58098;51.680;5.134;2022-10-01T08:46:51;18.15;;;9.32;;
70545;SDS011;58098;51.680;5.134;2022-10-01T08:49:29;17.40;;;9.60;;
70545;SDS011;58098;51.680;5.134;2022-10-01T08:54:40;23.77;;;10.10;;
70545;SDS011;58098;51.680;5.134;2022-10-01T08:57:13;20.25;;;9.77;;
70545;SDS011;58098;51.680;5.134;2022-10-01T09:04:36;23.40;;;10.65;;
70545;SDS011;58098;51.680;5.134;2022-10-01T09:07:03;20.93;;;8.67;;
70545;SDS011;58098;51.680;5.134;2022-10-01T09:20:39;16.30;;;5.28;;
70545;SDS011;58098;51.680;5.134;2022-10-01T09:23:28;18.70;;;5.73;;
70545;SDS011;58098;51.680;5.134;2022-10-01T09:25:33;21.52;;;5.35;;
70545;SDS011;58098;51.680;5.134;2022-10-01T09:28:00;16.25;;;5.03;;
70545;SDS011;58098;51.680;5.134;2022-10-01T09:30:26;21.77;;;5.35;;
70545;SDS011;58098;51.680;5.134;2022-10-01T09:33:01;21.40;;;4.25;;
70545;SDS011;58098;51.680;5.134;2022-10-01T09:35:34;19.10;;;3.80;;
70545;SDS011;58098;51.680;5.134;2022-10-01T09:38:14;16.35;;;3.30;;
70545;SDS011;58098;51.680;5.134;2022-10-01T09:40:59;14.80;;;2.92;;
70545;SDS011;58098;51.680;5.134;2022-10-01T09:43:28;17.38;;;3.30;;
70545;SDS011;58098;51.680;5.134;2022-10-01T09:45:53;16.45;;;2.83;;
70545;SDS011;58098;51.680;5.134;2022-10-01T09:48:24;16.23;;;2.63;;
70545;SDS011;58098;51.680;5.134;2022-10-01T09:50:52;19.20;;;2.57;;
70545;SDS011;58098;51.680;5.134;2022-10-01T09:53:25;12.52;;;2.60;;
70545;SDS011;58098;51.680;5.134;2022-10-01T09:55:53;18.90;;;3.03;;
70545;SDS011;58098;51.680;5.134;2022-10-01T09:58:20;15.27;;;2.88;;
70545;SDS011;58098;51.680;5.134;2022-10-01T10:00:46;12.40;;;2.60;;
70545;SDS011;58098;51.680;5.134;2022-10-01T10:03:28;16.23;;;2.63;;
70545;SDS011;58098;51.680;5.134;2022-10-01T10:05:54;10.65;;;2.42;;
70545;SDS011;58098;51.680;5.134;2022-10-01T10:08:27;16.75;;;2.30;;
70545;SDS011;58098;51.680;5.134;2022-10-01T10:10:57;17.60;;;2.70;;
70545;SDS011;58098;51.680;5.134;2022-10-01T10:13:31;18.50;;;2.83;;
70545;SDS011;58098;51.680;5.134;2022-10-01T10:15:59;15.05;;;2.20;;
70545;SDS011;58098;51.680;5.134;2022-10-01T10:18:32;16.17;;;2.97;;
70545;SDS011;58098;51.680;5.134;2022-10-01T10:21:00;17.88;;;2.65;;
70545;SDS011;58098;51.680;5.134;2022-10-01T10:23:26;11.65;;;2.38;;
70545;SDS011;58098;51.680;5.134;2022-10-01T10:26:03;13.23;;;2.33;;
70545;SDS011;58098;51.680;5.134;2022-10-01T10:28:38;20.80;;;2.72;;
70545;SDS011;58098;51.680;5.134;2022-10-01T10:31:06;15.23;;;2.92;;
70545;SDS011;58098;51.680;5.134;2022-10-01T10:33:33;15.00;;;2.78;;
70545;SDS011;58098;51.680;5.134;2022-10-01T10:35:59;20.43;;;2.80;;
70545;SDS011;58098;51.680;5.134;2022-10-01T10:38:25;13.00;;;2.30;;
70545;SDS011;58098;51.680;5.134;2022-10-01T10:40:53;13.70;;;2.30;;
70545;SDS011;58098;51.680;5.134;2022-10-01T10:43:19;19.85;;;3.17;;
70545;SDS011;58098;51.680;5.134;2022-10-01T10:45:46;11.25;;;2.10;;
70545;SDS011;58098;51.680;5.134;2022-10-01T10:48:19;18.23;;;2.40;;
70545;SDS011;58098;51.680;5.134;2022-10-01T10:50:44;17.73;;;2.60;;
70545;SDS011;58098;51.680;5.134;2022-10-01T10:53:12;13.30;;;2.50;;
70545;SDS011;58098;51.680;5.134;2022-10-01T10:55:51;21.85;;;3.22;;
70545;SDS011;58098;51.680;5.134;2022-10-01T10:58:17;10.07;;;2.33;;
70545;SDS011;58098;51.680;5.134;2022-10-01T11:00:43;15.30;;;2.97;;
70545;SDS011;58098;51.680;5.134;2022-10-01T11:03:10;15.55;;;2.70;;
70545;SDS011;58098;51.680;5.134;2022-10-01T11:05:40;15.85;;;2.80;;
70545;SDS011;58098;51.680;5.134;2022-10-01T11:08:07;14.80;;;2.75;;
70545;SDS011;58098;51.680;5.134;2022-10-01T11:26:05;14.60;;;2.40;;
70545;SDS011;58098;51.680;5.134;2022-10-01T11:36:13;11.30;;;2.00;;
70545;SDS011;58098;51.680;5.134;2022-10-01T11:41:41;11.50;;;2.75;;
70545;SDS011;58098;51.680;5.134;2022-10-01T11:44:15;14.68;;;2.30;;
70545;SDS011;58098;51.680;5.134;2022-10-01T11:52:03;16.30;;;2.43;;
70545;SDS011;58098;51.680;5.134;2022-10-01T11:54:30;10.40;;;2.60;;
70545;SDS011;58098;51.680;5.134;2022-10-01T11:56:56;18.50;;;3.35;;
70545;SDS011;58098;51.680;5.134;2022-10-01T12:04:51;10.77;;;2.03;;
70545;SDS011;58098;51.680;5.134;2022-10-01T12:12:19;11.30;;;1.97;;
70545;SDS011;58098;51.680;5.134;2022-10-01T12:17:33;11.68;;;2.30;;
70545;SDS011;58098;51.680;5.134;2022-10-01T12:20:00;8.93;;;2.03;;
70545;SDS011;58098;51.680;5.134;2022-10-01T12:22:28;12.25;;;2.92;;
70545;SDS011;58098;51.680;5.134;2022-10-01T12:24:55;12.90;;;2.40;;
70545;SDS011;58098;51.680;5.134;2022-10-01T12:30:00;8.43;;;2.35;;
70545;SDS011;58098;51.680;5.134;2022-10-01T12:32:39;12.73;;;2.58;;
70545;SDS011;58098;51.680;5.134;2022-10-01T12:40:31;15.45;;;2.03;;
70545;SDS011;58098;51.680;5.134;2022-10-01T12:43:10;14.40;;;2.03;;
70545;SDS011;58098;51.680;5.134;2022-10-01T12:53:17;13.80;;;2.53;;
70545;SDS011;58098;51.680;5.134;2022-10-01T12:55:50;10.17;;;2.30;;
70545;SDS011;58098;51.680;5.134;2022-10-01T13:00:59;8.90;;;2.30;;
70545;SDS011;58098;51.680;5.134;2022-10-01T13:14:11;13.20;;;2.35;;
70545;SDS011;58098;51.680;5.134;2022-10-01T13:16:42;12.77;;;2.38;;
70545;SDS011;58098;51.680;5.134;2022-10-01T13:19:16;13.65;;;2.40;;
70545;SDS011;58098;51.680;5.134;2022-10-01T13:26:46;13.55;;;2.28;;
70545;SDS011;58098;51.680;5.134;2022-10-01T13:31:59;8.18;;;2.10;;
70545;SDS011;58098;51.680;5.134;2022-10-01T13:34:40;10.88;;;1.90;;
70545;SDS011;58098;51.680;5.134;2022-10-01T13:39:34;14.63;;;2.25;;
70545;SDS011;58098;51.680;5.134;2022-10-01T13:41:59;12.17;;;2.07;;
70545;SDS011;58098;51.680;5.134;2022-10-01T13:44:32;9.73;;;2.00;;
70545;SDS011;58098;51.680;5.134;2022-10-01T13:47:02;6.28;;;1.77;;
70545;SDS011;58098;51.680;5.134;2022-10-01T13:49:29;8.38;;;2.10;;
70545;SDS011;58098;51.680;5.134;2022-10-01T13:51:55;15.33;;;2.83;;
70545;SDS011;58098;51.680;5.134;2022-10-01T13:57:05;8.90;;;2.20;;
70545;SDS011;58098;51.680;5.134;2022-10-01T13:59:32;11.50;;;2.03;;
70545;SDS011;58098;51.680;5.134;2022-10-01T14:01:58;11.23;;;2.03;;
70545;SDS011;58098;51.680;5.134;2022-10-01T14:04:39;15.43;;;2.60;;
70545;SDS011;58098;51.680;5.134;2022-10-01T14:07:15;12.15;;;2.03;;
70545;SDS011;58098;51.680;5.134;2022-10-01T14:09:43;10.57;;;2.10;;
70545;SDS011;58098;51.680;5.134;2022-10-01T14:14:57;9.63;;;2.30;;
70545;SDS011;58098;51.680;5.134;2022-10-01T14:17:45;15.35;;;2.40;;
70545;SDS011;58098;51.680;5.134;2022-10-01T14:20:20;14.80;;;2.60;;
70545;SDS011;58098;51.680;5.134;2022-10-01T14:22:52;14.97;;;3.20;;
70545;SDS011;58098;51.680;5.134;2022-10-01T14:30:18;13.50;;;2.35;;
70545;SDS011;58098;51.680;5.134;2022-10-01T14:37:59;14.18;;;2.40;;
70545;SDS011;58098;51.680;5.134;2022-10-01T14:40:25;10.93;;;2.10;;
70545;SDS011;58098;51.680;5.134;2022-10-01T14:42:58;15.73;;;2.37;;
70545;SDS011;58098;51.680;5.134;2022-10-01T14:45:24;12.07;;;1.98;;
70545;SDS011;58098;51.680;5.134;2022-10-01T14:47:58;14.50;;;2.30;;
70545;SDS011;58098;51.680;5.134;2022-10-01T14:50:23;16.90;;;2.10;;
70545;SDS011;58098;51.680;5.134;2022-10-01T14:52:49;15.67;;;2.30;;
70545;SDS011;58098;51.680;5.134;2022-10-01T14:55:15;10.85;;;2.35;;
70545;SDS011;58098;51.680;5.134;2022-10-01T14:57:42;12.30;;;2.42;;
70545;SDS011;58098;51.680;5.134;2022-10-01T15:00:13;16.90;;;2.10;;
70545;SDS011;58098;51.680;5.134;2022-10-01T15:02:50;18.08;;;2.13;;
70545;SDS011;58098;51.680;5.134;2022-10-01T15:05:26;15.30;;;2.92;;
70545;SDS011;58098;51.680;5.134;2022-10-01T15:07:52;11.88;;;2.33;;
70545;SDS011;58098;51.680;5.134;2022-10-01T15:10:18;12.43;;;2.53;;
70545;SDS011;58098;51.680;5.134;2022-10-01T15:12:44;8.47;;;2.63;;
70545;SDS011;58098;51.680;5.134;2022-10-01T15:15:43;15.55;;;2.53;;
70545;SDS011;58098;51.680;5.134;2022-10-01T15:18:02;14.18;;;2.75;;
70545;SDS011;58098;51.680;5.134;2022-10-01T15:20:28;16.40;;;2.42;;
70545;SDS011;58098;51.680;5.134;2022-10-01T15:22:53;13.27;;;2.37;;
70545;SDS011;58098;51.680;5.134;2022-10-01T15:25:21;14.43;;;2.47;;
70545;SDS011;58098;51.680;5.134;2022-10-01T15:27:47;11.85;;;2.45;;
70545;SDS011;58098;51.680;5.134;2022-10-01T15:30:13;14.00;;;2.70;;
70545;SDS011;58098;51.680;5.134;2022-10-01T15:32:39;11.50;;;2.53;;
70545;SDS011;58098;51.680;5.134;2022-10-01T15:35:05;14.23;;;2.30;;
70545;SDS011;58098;51.680;5.134;2022-10-01T15:37:34;16.52;;;2.60;;
70545;SDS011;58098;51.680;5.134;2022-10-01T15:40:00;19.35;;;2.50;;
70545;SDS011;58098;51.680;5.134;2022-10-01T15:42:30;9.70;;;1.90;;
70545;SDS011;58098;51.680;5.134;2022-10-01T15:47:31;12.38;;;2.53;;
70545;SDS011;58098;51.680;5.134;2022-10-01T15:52:26;17.50;;;2.28;;
70545;SDS011;58098;51.680;5.134;2022-10-01T15:55:11;13.80;;;2.20;;
70545;SDS011;58098;51.680;5.134;2022-10-01T15:57:39;16.25;;;2.60;;
70545;SDS011;58098;51.680;5.134;2022-10-01T16:00:04;13.60;;;2.77;;
70545;SDS011;58098;51.680;5.134;2022-10-01T16:02:29;13.67;;;2.43;;
70545;SDS011;58098;51.680;5.134;2022-10-01T16:05:02;13.67;;;2.60;;
70545;SDS011;58098;51.680;5.134;2022-10-01T16:07:28;16.17;;;2.60;;
70545;SDS011;58098;51.680;5.134;2022-10-01T16:09:58;12.80;;;2.50;;
70545;SDS011;58098;51.680;5.134;2022-10-01T16:12:25;14.65;;;3.00;;
70545;SDS011;58098;51.680;5.134;2022-10-01T16:19:55;15.00;;;2.35;;
70545;SDS011;58098;51.680;5.134;2022-10-01T16:24:47;14.30;;;3.03;;
70545;SDS011;58098;51.680;5.134;2022-10-01T16:27:17;15.30;;;2.58;;
70545;SDS011;58098;51.680;5.134;2022-10-01T16:29:56;16.75;;;2.83;;
70545;SDS011;58098;51.680;5.134;2022-10-01T16:32:22;13.60;;;3.07;;
70545;SDS011;58098;51.680;5.134;2022-10-01T16:34:47;19.33;;;2.93;;
70545;SDS011;58098;51.680;5.134;2022-10-01T16:37:12;12.83;;;2.90;;
70545;SDS011;58098;51.680;5.134;2022-10-01T16:39:38;14.50;;;3.27;;
70545;SDS011;58098;51.680;5.134;2022-10-01T16:42:03;14.70;;;2.80;;
70545;SDS011;58098;51.680;5.134;2022-10-01T16:44:30;19.00;;;2.90;;
70545;SDS011;58098;51.680;5.134;2022-10-01T16:46:55;14.67;;;3.10;;
70545;SDS011;58098;51.680;5.134;2022-10-01T16:49:20;15.97;;;3.20;;
70545;SDS011;58098;51.680;5.134;2022-10-01T16:51:49;13.57;;;2.83;;
70545;SDS011;58098;51.680;5.134;2022-10-01T16:54:18;16.67;;;2.78;;
70545;SDS011;58098;51.680;5.134;2022-10-01T16:56:44;16.08;;;2.65;;
70545;SDS011;58098;51.680;5.134;2022-10-01T16:59:09;13.27;;;2.93;;
70545;SDS011;58098;51.680;5.134;2022-10-01T17:01:34;15.97;;;2.77;;
70545;SDS011;58098;51.680;5.134;2022-10-01T17:04:00;17.20;;;2.93;;
70545;SDS011;58098;51.680;5.134;2022-10-01T17:06:25;16.57;;;2.60;;
70545;SDS011;58098;51.680;5.134;2022-10-01T17:08:50;12.43;;;2.87;;
70545;SDS011;58098;51.680;5.134;2022-10-01T17:11:15;12.57;;;2.53;;
70545;SDS011;58098;51.680;5.134;2022-10-01T17:13:41;12.67;;;2.40;;
70545;SDS011;58098;51.680;5.134;2022-10-01T17:16:07;12.83;;;2.83;;
70545;SDS011;58098;51.680;5.134;2022-10-01T17:18:32;11.98;;;2.20;;